KHEF

Manassas Regional / Harry P Davis Field Airport

Washington, Virginia, USA
METAR KHEF 160156Z 04007KT 3SM BR OVC008 11/11 A2994 RMK AO2 CIG 005V010 SLP151 T01110106 PNO $
Observed Flight Rules
Dec-16 @ 01:56 UTC (21 minutes ago) Instrument Flight Rules
Wind Visibility Clouds Conditions
40° at 7 knots 3 miles
  • Overcast at 800' AGL
  • Mist
Temperatures Readings
Current 11°C / 52°F
Dewpoint 11°C / 52°F
Humidity 100%
Altimeter 29.94" Hg
Pressure 1015.1 hPa
Elevation 59
METAR KHEF 160156Z 04007KT 3SM BR OVC008 11/11 A2994 RMK AO2 CIG 005V010 SLP151 T01110106 PNO $
Observed Flight Rules
Dec-16 @ 01:56 UTC
(21 minutes ago)
IFR
Wind Visibility
40° at 7 knots 3 miles
Clouds
  • Overcast at 800' AGL
Conditions
  • Mist
Temperature Dewpoint
11°C / 52°F 11°C / 52°F
Humidity Altimeter Pressure
100% 29.94" Hg 1015.1 hPa